A- A+ FrançaisEnglishEspañol中国

最近的 LFBT Tarbes-Lourdes-PyrénéesMHTG ToncontínFLMK MkushiFAOB OverbergEDWY NorderneyVQPR Paro

飞行员的航空天气,使用METAR(气象机场报告)进行的飞行准备和TAF(终端机场预报:针对以下情况的短期天气预报)航空)。 以及其他资源,例如VAC(目视进近图)和NOTAM(通知飞行员)以进行预试飞行.

METAR, TAF, VAC, NOTAM Fort Norman机场 (加拿大) / OACI CZFN/ IATA ZFN

它位于附近 Tulita, Tulita 在 4.2 km, Norman Wells 在 72 km, Deline 在 107 km, Fort Franklin 在 109 km, Fort Good Hope 在 206 km, Wrigley 在 210 km, Colville Lake 在 237 km, Fort Simpson 在 399 km, Naylors Landing 在 408 km, Berens Landing 在 413 km,

机场的高度为 Fort Norman机场的

101 m = 331 ft

跑道 Fort Norman机场的

附近的机场Fort Norman机场的

目前的天气 Fort Norman机场的 - CZFN

ciel couvert
21°C

Vent 6 km/h

可提供5天天气预报 Tulita 在 4.2 km, Norman Wells 在 72 km, Deline 在 107 km, Fort Franklin 在 109 km, Fort Good Hope 在 206 km, Wrigley 在 210 km, Colville Lake 在 237 km, Fort Simpson 在 399 km, Naylors Landing 在 408 km, Berens Landing 在 413 km,

METAR Fort Norman机场的 - CZFN

CZFN 191800Z 02003KT 15SM BKN130 21/13 A2962 RMK AC7 SLP033 DENSITY ALT 1500FT

Fort Norman机场METAR解码 (加拿大)

CZFN机场发行的METAR日期2020年06月19日至18:00 GMT, 警告:此METAR已过期, 已于 100 天 47 分钟.

可见度为24.1 km = 15 sm.

温度为21°C = 70 °F 露点为13°C = 55 °F 。 这相当于60%的相对湿度。.

QNH是1003 hPa = 29.62 inHg

的风3 kt = 6 km/h, 风向为20°.

云:距云13000 ft = 3960 m.

备注 AC7 SLP033 DENSITY ALT 1500FT

TAF Fort Norman机场的 - CZFN

没有TAF

Fort Norman机场的NOTAM

提供的NOTAM不能保证其时事性。 在将其用于飞行准备或在飞行期间使用之前,飞行员是唯一负责验证其有效性的人员。

没有通知

数据源